sensor_id;sensor_type;location;lat;lon;timestamp;pressure;altitude;pressure_sealevel;temperature;humidity
73085;BME280;61266;49.460;10.892;2022-07-23T00:01:43;97683.34;;;23.78;53.80
73085;BME280;61266;49.460;10.892;2022-07-23T00:04:11;97689.06;;;24.11;51.72
73085;BME280;61266;49.460;10.892;2022-07-23T00:06:38;97683.25;;;24.17;51.95
73085;BME280;61266;49.460;10.892;2022-07-23T00:09:06;97689.66;;;24.08;51.87
73085;BME280;61266;49.460;10.892;2022-07-23T00:11:34;97687.59;;;23.95;52.69
73085;BME280;61266;49.460;10.892;2022-07-23T00:14:02;97689.88;;;24.16;50.98
73085;BME280;61266;49.460;10.892;2022-07-23T00:16:31;97681.63;;;23.88;53.98
73085;BME280;61266;49.460;10.892;2022-07-23T00:18:58;97677.13;;;23.97;51.43
73085;BME280;61266;49.460;10.892;2022-07-23T00:21:28;97677.03;;;24.07;51.63
73085;BME280;61266;49.460;10.892;2022-07-23T00:23:56;97688.06;;;24.02;52.75
73085;BME280;61266;49.460;10.892;2022-07-23T00:26:24;97684.69;;;24.10;52.06
73085;BME280;61266;49.460;10.892;2022-07-23T00:28:52;97683.22;;;23.94;52.57
73085;BME280;61266;49.460;10.892;2022-07-23T00:31:19;97676.16;;;23.88;54.62
73085;BME280;61266;49.460;10.892;2022-07-23T00:33:49;97668.94;;;22.85;58.85
73085;BME280;61266;49.460;10.892;2022-07-23T00:36:16;97668.22;;;23.81;53.04
73085;BME280;61266;49.460;10.892;2022-07-23T00:38:44;97665.56;;;23.76;55.31
73085;BME280;61266;49.460;10.892;2022-07-23T00:41:11;97669.69;;;24.02;52.99
73085;BME280;61266;49.460;10.892;2022-07-23T00:43:39;97661.88;;;23.85;53.98
73085;BME280;61266;49.460;10.892;2022-07-23T00:46:07;97657.47;;;23.90;52.71
73085;BME280;61266;49.460;10.892;2022-07-23T00:48:35;97660.38;;;23.98;52.83
73085;BME280;61266;49.460;10.892;2022-07-23T00:51:04;97653.56;;;23.96;53.87
73085;BME280;61266;49.460;10.892;2022-07-23T00:53:32;97656.94;;;23.88;52.66
73085;BME280;61266;49.460;10.892;2022-07-23T00:55:59;97646.16;;;23.96;52.38
73085;BME280;61266;49.460;10.892;2022-07-23T00:58:27;97652.28;;;23.88;54.48
73085;BME280;61266;49.460;10.892;2022-07-23T01:00:56;97645.00;;;23.73;54.75
73085;BME280;61266;49.460;10.892;2022-07-23T01:03:23;97645.66;;;23.89;53.56
73085;BME280;61266;49.460;10.892;2022-07-23T01:05:51;97643.50;;;23.86;53.94
73085;BME280;61266;49.460;10.892;2022-07-23T01:08:20;97639.66;;;23.87;53.95
73085;BME280;61266;49.460;10.892;2022-07-23T01:10:48;97644.94;;;23.78;54.31
73085;BME280;61266;49.460;10.892;2022-07-23T01:13:17;97643.06;;;23.01;63.85
73085;BME280;61266;49.460;10.892;2022-07-23T01:15:45;97646.09;;;23.38;57.01
73085;BME280;61266;49.460;10.892;2022-07-23T01:18:13;97641.78;;;23.66;54.33
73085;BME280;61266;49.460;10.892;2022-07-23T01:20:42;97645.38;;;23.62;54.89
73085;BME280;61266;49.460;10.892;2022-07-23T01:23:11;97652.13;;;22.42;62.52
73085;BME280;61266;49.460;10.892;2022-07-23T01:25:47;97650.28;;;23.31;56.90
73085;BME280;61266;49.460;10.892;2022-07-23T01:28:15;97647.06;;;23.19;58.86
73085;BME280;61266;49.460;10.892;2022-07-23T01:30:43;97636.06;;;23.29;56.99
73085;BME280;61266;49.460;10.892;2022-07-23T01:33:10;97643.22;;;23.59;55.16
73085;BME280;61266;49.460;10.892;2022-07-23T01:35:41;97638.84;;;23.58;55.33
73085;BME280;61266;49.460;10.892;2022-07-23T01:38:08;97653.09;;;23.21;61.71
73085;BME280;61266;49.460;10.892;2022-07-23T01:40:38;97652.50;;;22.85;58.64
73085;BME280;61266;49.460;10.892;2022-07-23T01:43:05;97655.88;;;22.62;60.46
73085;BME280;61266;49.460;10.892;2022-07-23T01:45:33;97663.06;;;22.42;61.10
73085;BME280;61266;49.460;10.892;2022-07-23T01:48:01;97661.91;;;22.69;61.36
73085;BME280;61266;49.460;10.892;2022-07-23T01:50:35;97653.50;;;22.99;56.46
73085;BME280;61266;49.460;10.892;2022-07-23T01:53:05;97663.25;;;23.20;55.26
73085;BME280;61266;49.460;10.892;2022-07-23T01:55:33;97662.09;;;23.26;56.53
73085;BME280;61266;49.460;10.892;2022-07-23T01:58:05;97665.22;;;23.10;55.68
73085;BME280;61266;49.460;10.892;2022-07-23T02:00:33;97664.91;;;23.16;55.40
73085;BME280;61266;49.460;10.892;2022-07-23T02:03:09;97661.56;;;23.24;54.72
73085;BME280;61266;49.460;10.892;2022-07-23T02:05:37;97654.56;;;23.42;53.40
73085;BME280;61266;49.460;10.892;2022-07-23T02:08:05;97661.47;;;23.34;54.62
73085;BME280;61266;49.460;10.892;2022-07-23T02:10:35;97651.47;;;23.20;55.20
73085;BME280;61266;49.460;10.892;2022-07-23T02:13:11;97656.22;;;23.04;57.28
73085;BME280;61266;49.460;10.892;2022-07-23T02:15:47;97639.06;;;22.88;56.87
73085;BME280;61266;49.460;10.892;2022-07-23T02:18:15;97647.22;;;22.99;57.66
73085;BME280;61266;49.460;10.892;2022-07-23T02:20:43;97633.28;;;22.90;57.29
73085;BME280;61266;49.460;10.892;2022-07-23T02:23:11;97638.28;;;23.22;55.13
73085;BME280;61266;49.460;10.892;2022-07-23T02:25:42;97622.66;;;23.22;57.15
73085;BME280;61266;49.460;10.892;2022-07-23T02:28:16;97621.81;;;23.27;54.97
73085;BME280;61266;49.460;10.892;2022-07-23T02:30:47;97624.31;;;23.23;55.43
73085;BME280;61266;49.460;10.892;2022-07-23T02:33:17;97625.94;;;23.24;55.41
73085;BME280;61266;49.460;10.892;2022-07-23T02:35:48;97624.78;;;23.30;54.86
73085;BME280;61266;49.460;10.892;2022-07-23T02:38:20;97631.78;;;23.13;56.31
73085;BME280;61266;49.460;10.892;2022-07-23T02:40:48;97634.78;;;23.16;55.66
73085;BME280;61266;49.460;10.892;2022-07-23T02:43:20;97636.09;;;22.85;57.88
73085;BME280;61266;49.460;10.892;2022-07-23T02:45:49;97631.50;;;23.09;56.31
73085;BME280;61266;49.460;10.892;2022-07-23T02:48:17;97622.44;;;23.14;56.04
73085;BME280;61266;49.460;10.892;2022-07-23T02:50:47;97621.09;;;23.11;55.79
73085;BME280;61266;49.460;10.892;2022-07-23T02:53:16;97618.94;;;23.08;55.84
73085;BME280;61266;49.460;10.892;2022-07-23T02:55:45;97621.78;;;22.93;57.13
73085;BME280;61266;49.460;10.892;2022-07-23T02:58:19;97623.16;;;22.90;57.02
73085;BME280;61266;49.460;10.892;2022-07-23T03:00:57;97618.97;;;23.03;56.77
73085;BME280;61266;49.460;10.892;2022-07-23T03:03:34;97613.75;;;23.07;56.36
73085;BME280;61266;49.460;10.892;2022-07-23T03:06:07;97615.97;;;23.05;56.59
73085;BME280;61266;49.460;10.892;2022-07-23T03:08:44;97624.19;;;23.05;56.30
73085;BME280;61266;49.460;10.892;2022-07-23T03:11:14;97619.25;;;23.02;55.78
73085;BME280;61266;49.460;10.892;2022-07-23T03:13:53;97624.59;;;22.83;58.16
73085;BME280;61266;49.460;10.892;2022-07-23T03:16:26;97637.34;;;22.98;56.38
73085;BME280;61266;49.460;10.892;2022-07-23T03:18:56;97632.19;;;22.91;56.43
73085;BME280;61266;49.460;10.892;2022-07-23T03:21:38;97631.69;;;22.84;57.44
73085;BME280;61266;49.460;10.892;2022-07-23T03:24:13;97634.41;;;22.89;56.79
73085;BME280;61266;49.460;10.892;2022-07-23T03:26:44;97626.38;;;22.98;56.20
73085;BME280;61266;49.460;10.892;2022-07-23T03:29:32;97633.06;;;22.81;57.62
73085;BME280;61266;49.460;10.892;2022-07-23T03:32:10;97635.34;;;22.64;58.54
73085;BME280;61266;49.460;10.892;2022-07-23T03:34:46;97629.31;;;22.72;57.38
73085;BME280;61266;49.460;10.892;2022-07-23T03:37:16;97639.44;;;22.72;57.14
73085;BME280;61266;49.460;10.892;2022-07-23T03:39:50;97636.16;;;22.70;57.79
73085;BME280;61266;49.460;10.892;2022-07-23T03:42:22;97638.06;;;22.69;56.92
73085;BME280;61266;49.460;10.892;2022-07-23T03:45:03;97638.66;;;22.61;57.77
73085;BME280;61266;49.460;10.892;2022-07-23T03:47:40;97641.09;;;22.63;57.58
73085;BME280;61266;49.460;10.892;2022-07-23T03:50:14;97642.19;;;22.62;57.68
73085;BME280;61266;49.460;10.892;2022-07-23T03:52:51;97642.19;;;22.62;57.71
73085;BME280;61266;49.460;10.892;2022-07-23T03:55:21;97641.66;;;22.65;56.75
73085;BME280;61266;49.460;10.892;2022-07-23T03:57:50;97645.47;;;22.64;57.24
73085;BME280;61266;49.460;10.892;2022-07-23T04:00:40;97640.91;;;22.44;58.33
73085;BME280;61266;49.460;10.892;2022-07-23T04:03:29;97652.97;;;22.38;58.27
73085;BME280;61266;49.460;10.892;2022-07-23T04:06:05;97651.16;;;22.08;59.82
73085;BME280;61266;49.460;10.892;2022-07-23T04:08:35;97653.91;;;22.13;59.38
73085;BME280;61266;49.460;10.892;2022-07-23T04:11:08;97659.06;;;22.25;59.03
73085;BME280;61266;49.460;10.892;2022-07-23T04:14:03;97642.66;;;22.20;58.16
73085;BME280;61266;49.460;10.892;2022-07-23T04:16:51;97641.56;;;22.11;58.81
73085;BME280;61266;49.460;10.892;2022-07-23T04:19:24;97643.97;;;22.32;57.88
73085;BME280;61266;49.460;10.892;2022-07-23T04:25:08;97653.84;;;22.28;58.13
73085;BME280;61266;49.460;10.892;2022-07-23T04:27:37;97666.06;;;22.51;56.65
73085;BME280;61266;49.460;10.892;2022-07-23T04:30:18;97675.44;;;22.35;57.05
73085;BME280;61266;49.460;10.892;2022-07-23T04:33:32;97667.78;;;22.37;57.05
73085;BME280;61266;49.460;10.892;2022-07-23T04:36:03;97669.94;;;22.45;56.25
73085;BME280;61266;49.460;10.892;2022-07-23T04:38:40;97669.53;;;21.97;59.56
73085;BME280;61266;49.460;10.892;2022-07-23T04:41:08;97674.91;;;22.28;56.80
73085;BME280;61266;49.460;10.892;2022-07-23T04:43:45;97668.91;;;22.16;57.56
73085;BME280;61266;49.460;10.892;2022-07-23T04:46:23;97673.06;;;22.08;57.15
73085;BME280;61266;49.460;10.892;2022-07-23T04:48:58;97668.88;;;22.36;55.69
73085;BME280;61266;49.460;10.892;2022-07-23T04:51:29;97669.16;;;22.29;58.37
73085;BME280;61266;49.460;10.892;2022-07-23T04:54:00;97674.59;;;22.34;57.04
73085;BME280;61266;49.460;10.892;2022-07-23T04:56:33;97676.56;;;22.24;57.18
73085;BME280;61266;49.460;10.892;2022-07-23T04:59:03;97660.31;;;22.47;55.43
73085;BME280;61266;49.460;10.892;2022-07-23T05:01:31;97666.91;;;22.46;56.16
73085;BME280;61266;49.460;10.892;2022-07-23T05:04:04;97671.34;;;22.32;56.33
73085;BME280;61266;49.460;10.892;2022-07-23T05:06:35;97668.56;;;22.37;55.28
73085;BME280;61266;49.460;10.892;2022-07-23T05:09:04;97674.84;;;22.48;55.96
73085;BME280;61266;49.460;10.892;2022-07-23T05:11:42;97675.84;;;22.62;55.61
73085;BME280;61266;49.460;10.892;2022-07-23T05:14:12;97690.03;;;22.84;55.55
73085;BME280;61266;49.460;10.892;2022-07-23T05:16:43;97686.75;;;22.77;55.93
73085;BME280;61266;49.460;10.892;2022-07-23T05:19:12;97691.38;;;22.92;55.11
73085;BME280;61266;49.460;10.892;2022-07-23T05:21:47;97682.59;;;22.90;55.79
73085;BME280;61266;49.460;10.892;2022-07-23T05:24:16;97683.25;;;23.21;54.03
73085;BME280;61266;49.460;10.892;2022-07-23T05:26:47;97682.38;;;23.25;54.03
73085;BME280;61266;49.460;10.892;2022-07-23T05:29:14;97683.78;;;23.18;54.96
73085;BME280;61266;49.460;10.892;2022-07-23T05:31:42;97688.25;;;23.53;54.28
73085;BME280;61266;49.460;10.892;2022-07-23T05:34:16;97682.50;;;23.83;52.35
73085;BME280;61266;49.460;10.892;2022-07-23T05:36:44;97690.38;;;23.61;54.54
73085;BME280;61266;49.460;10.892;2022-07-23T05:39:16;97697.91;;;24.08;53.47
73085;BME280;61266;49.460;10.892;2022-07-23T05:41:44;97704.53;;;24.02;52.92
73085;BME280;61266;49.460;10.892;2022-07-23T05:44:12;97705.69;;;23.96;54.00
73085;BME280;61266;49.460;10.892;2022-07-23T05:46:40;97702.34;;;23.70;54.93
73085;BME280;61266;49.460;10.892;2022-07-23T05:49:08;97711.78;;;23.10;55.71
73085;BME280;61266;49.460;10.892;2022-07-23T05:51:37;97713.88;;;22.84;56.08
73085;BME280;61266;49.460;10.892;2022-07-23T05:54:05;97723.44;;;22.86;54.65
73085;BME280;61266;49.460;10.892;2022-07-23T05:56:34;97735.78;;;22.74;55.32
73085;BME280;61266;49.460;10.892;2022-07-23T05:59:02;97741.81;;;22.81;55.92
73085;BME280;61266;49.460;10.892;2022-07-23T06:01:30;97742.91;;;22.80;55.73
73085;BME280;61266;49.460;10.892;2022-07-23T06:03:58;97741.31;;;23.23;54.79
73085;BME280;61266;49.460;10.892;2022-07-23T06:06:29;97745.97;;;23.22;54.88
73085;BME280;61266;49.460;10.892;2022-07-23T06:08:58;97750.13;;;23.15;55.44
73085;BME280;61266;49.460;10.892;2022-07-23T06:11:26;97753.56;;;23.40;54.31
73085;BME280;61266;49.460;10.892;2022-07-23T06:14:00;97752.44;;;23.47;54.35
73085;BME280;61266;49.460;10.892;2022-07-23T06:16:32;97744.69;;;23.54;54.41
73085;BME280;61266;49.460;10.892;2022-07-23T06:19:00;97743.63;;;23.89;53.59
73085;BME280;61266;49.460;10.892;2022-07-23T06:21:28;97748.22;;;24.27;53.30
73085;BME280;61266;49.460;10.892;2022-07-23T06:24:17;97747.56;;;24.06;52.85
73085;BME280;61266;49.460;10.892;2022-07-23T06:26:45;97743.03;;;24.25;52.73
73085;BME280;61266;49.460;10.892;2022-07-23T06:29:13;97747.06;;;24.04;52.96
73085;BME280;61266;49.460;10.892;2022-07-23T06:31:40;97751.31;;;24.20;53.00
73085;BME280;61266;49.460;10.892;2022-07-23T06:34:08;97760.78;;;24.33;52.40
73085;BME280;61266;49.460;10.892;2022-07-23T06:36:38;97767.00;;;24.15;52.05
73085;BME280;61266;49.460;10.892;2022-07-23T06:39:08;97766.03;;;24.58;51.77
73085;BME280;61266;49.460;10.892;2022-07-23T06:41:40;97778.22;;;24.47;51.69
73085;BME280;61266;49.460;10.892;2022-07-23T06:44:13;97774.31;;;24.53;51.92
73085;BME280;61266;49.460;10.892;2022-07-23T06:46:41;97774.13;;;24.45;51.92
73085;BME280;61266;49.460;10.892;2022-07-23T06:49:12;97775.44;;;24.76;51.21
73085;BME280;61266;49.460;10.892;2022-07-23T06:51:40;97773.75;;;24.56;52.09
73085;BME280;61266;49.460;10.892;2022-07-23T06:54:07;97777.38;;;24.23;53.05
73085;BME280;61266;49.460;10.892;2022-07-23T06:56:35;97781.28;;;24.12;52.43
73085;BME280;61266;49.460;10.892;2022-07-23T06:59:16;97777.19;;;24.09;52.57
73085;BME280;61266;49.460;10.892;2022-07-23T07:01:44;97785.16;;;24.06;53.67
73085;BME280;61266;49.460;10.892;2022-07-23T07:04:12;97789.00;;;24.05;53.91
73085;BME280;61266;49.460;10.892;2022-07-23T07:06:43;97787.50;;;24.27;52.30
73085;BME280;61266;49.460;10.892;2022-07-23T07:09:10;97792.63;;;24.00;52.86
73085;BME280;61266;49.460;10.892;2022-07-23T07:11:47;97792.66;;;23.95;53.15
73085;BME280;61266;49.460;10.892;2022-07-23T07:14:19;97800.34;;;23.93;52.84
73085;BME280;61266;49.460;10.892;2022-07-23T07:17:06;97805.59;;;23.90;52.68
73085;BME280;61266;49.460;10.892;2022-07-23T07:19:40;97813.94;;;23.74;53.26
73085;BME280;61266;49.460;10.892;2022-07-23T07:22:15;97820.78;;;23.77;53.45
73085;BME280;61266;49.460;10.892;2022-07-23T07:24:42;97819.75;;;23.68;53.93
73085;BME280;61266;49.460;10.892;2022-07-23T07:27:10;97833.25;;;23.59;54.52
73085;BME280;61266;49.460;10.892;2022-07-23T07:29:39;97828.84;;;23.63;54.71
73085;BME280;61266;49.460;10.892;2022-07-23T07:32:09;97837.16;;;23.43;55.28
73085;BME280;61266;49.460;10.892;2022-07-23T07:34:37;97844.56;;;23.48;55.23
73085;BME280;61266;49.460;10.892;2022-07-23T07:37:04;97848.66;;;23.45;55.48
73085;BME280;61266;49.460;10.892;2022-07-23T07:39:35;97846.88;;;23.15;55.81
73085;BME280;61266;49.460;10.892;2022-07-23T07:42:03;97857.00;;;23.10;57.18
73085;BME280;61266;49.460;10.892;2022-07-23T07:44:31;97858.19;;;22.78;60.92
73085;BME280;61266;49.460;10.892;2022-07-23T07:49:29;97861.19;;;22.62;61.32
73085;BME280;61266;49.460;10.892;2022-07-23T07:52:00;97865.59;;;22.63;59.97
73085;BME280;61266;49.460;10.892;2022-07-23T07:54:29;97866.16;;;22.75;60.59
73085;BME280;61266;49.460;10.892;2022-07-23T07:56:57;97859.03;;;22.79;59.80
73085;BME280;61266;49.460;10.892;2022-07-23T07:59:25;97861.72;;;22.99;58.52
73085;BME280;61266;49.460;10.892;2022-07-23T08:02:00;97856.28;;;22.89;58.60
73085;BME280;61266;49.460;10.892;2022-07-23T08:04:28;97859.47;;;23.11;58.38
73085;BME280;61266;49.460;10.892;2022-07-23T08:06:55;97855.09;;;23.15;57.26
73085;BME280;61266;49.460;10.892;2022-07-23T08:09:23;97856.69;;;23.21;57.43
73085;BME280;61266;49.460;10.892;2022-07-23T08:11:51;97859.50;;;23.01;56.97
73085;BME280;61266;49.460;10.892;2022-07-23T08:14:19;97848.28;;;23.03;56.65
73085;BME280;61266;49.460;10.892;2022-07-23T08:16:46;97846.16;;;22.79;56.03
73085;BME280;61266;49.460;10.892;2022-07-23T08:19:35;97848.91;;;22.74;56.91
73085;BME280;61266;49.460;10.892;2022-07-23T08:22:03;97855.22;;;22.44;57.91
73085;BME280;61266;49.460;10.892;2022-07-23T08:24:31;97864.50;;;22.54;58.77
73085;BME280;61266;49.460;10.892;2022-07-23T08:26:58;97866.16;;;22.60;58.25
73085;BME280;61266;49.460;10.892;2022-07-23T08:29:26;97871.91;;;22.48;58.10
73085;BME280;61266;49.460;10.892;2022-07-23T08:31:54;97876.56;;;22.27;59.81
73085;BME280;61266;49.460;10.892;2022-07-23T08:34:21;97868.38;;;22.32;60.76
73085;BME280;61266;49.460;10.892;2022-07-23T08:36:50;97891.03;;;22.02;61.92
73085;BME280;61266;49.460;10.892;2022-07-23T08:39:18;97891.34;;;22.57;62.33
73085;BME280;61266;49.460;10.892;2022-07-23T08:41:46;97905.56;;;22.38;62.85
73085;BME280;61266;49.460;10.892;2022-07-23T08:44:16;97909.44;;;22.73;60.10
73085;BME280;61266;49.460;10.892;2022-07-23T08:49:12;97910.78;;;22.60;61.13
73085;BME280;61266;49.460;10.892;2022-07-23T08:51:41;97915.97;;;22.92;58.91
73085;BME280;61266;49.460;10.892;2022-07-23T08:54:10;97914.31;;;22.86;58.42
73085;BME280;61266;49.460;10.892;2022-07-23T08:56:38;97917.84;;;23.02;56.68
73085;BME280;61266;49.460;10.892;2022-07-23T08:59:06;97934.88;;;22.78;58.78
73085;BME280;61266;49.460;10.892;2022-07-23T09:01:34;97943.91;;;22.94;57.81
73085;BME280;61266;49.460;10.892;2022-07-23T09:04:02;97944.75;;;22.84;58.60
73085;BME280;61266;49.460;10.892;2022-07-23T09:06:30;97940.03;;;23.05;56.88
73085;BME280;61266;49.460;10.892;2022-07-23T09:08:57;97942.00;;;22.69;58.91
73085;BME280;61266;49.460;10.892;2022-07-23T09:11:26;97946.41;;;22.80;58.71
73085;BME280;61266;49.460;10.892;2022-07-23T09:13:55;97951.88;;;22.80;57.91
73085;BME280;61266;49.460;10.892;2022-07-23T09:16:27;97955.44;;;22.76;59.14
73085;BME280;61266;49.460;10.892;2022-07-23T09:18:58;97970.22;;;22.85;58.58
73085;BME280;61266;49.460;10.892;2022-07-23T09:21:27;97970.22;;;22.75;59.82
73085;BME280;61266;49.460;10.892;2022-07-23T09:23:57;97965.56;;;22.70;59.91
73085;BME280;61266;49.460;10.892;2022-07-23T09:26:31;97959.25;;;22.70;59.59
73085;BME280;61266;49.460;10.892;2022-07-23T09:29:08;97946.91;;;22.62;59.14
73085;BME280;61266;49.460;10.892;2022-07-23T09:31:47;97942.56;;;22.71;58.98
73085;BME280;61266;49.460;10.892;2022-07-23T09:34:18;97937.06;;;22.51;61.44
73085;BME280;61266;49.460;10.892;2022-07-23T09:36:50;97937.34;;;22.75;58.58
73085;BME280;61266;49.460;10.892;2022-07-23T09:39:25;97945.28;;;22.81;57.13
73085;BME280;61266;49.460;10.892;2022-07-23T09:41:55;97957.88;;;22.57;61.43
73085;BME280;61266;49.460;10.892;2022-07-23T09:44:23;97954.88;;;22.79;58.17
73085;BME280;61266;49.460;10.892;2022-07-23T09:46:58;97949.66;;;22.82;58.07
73085;BME280;61266;49.460;10.892;2022-07-23T09:49:26;97957.06;;;22.72;58.53
73085;BME280;61266;49.460;10.892;2022-07-23T09:51:57;97963.34;;;22.57;61.39
73085;BME280;61266;49.460;10.892;2022-07-23T09:54:30;97956.78;;;22.63;60.12
73085;BME280;61266;49.460;10.892;2022-07-23T09:57:04;97963.88;;;22.54;60.98
73085;BME280;61266;49.460;10.892;2022-07-23T09:59:35;97962.78;;;22.50;64.28
73085;BME280;61266;49.460;10.892;2022-07-23T10:02:05;97972.91;;;22.44;61.79
73085;BME280;61266;49.460;10.892;2022-07-23T10:04:33;97973.72;;;22.50;61.48
73085;BME280;61266;49.460;10.892;2022-07-23T10:07:08;97976.47;;;22.45;64.68
73085;BME280;61266;49.460;10.892;2022-07-23T10:09:38;97964.38;;;22.16;67.74
73085;BME280;61266;49.460;10.892;2022-07-23T10:12:11;97942.31;;;21.08;73.97
73085;BME280;61266;49.460;10.892;2022-07-23T10:14:50;97944.97;;;22.37;61.40
73085;BME280;61266;49.460;10.892;2022-07-23T10:17:18;97938.34;;;21.26;73.92
73085;BME280;61266;49.460;10.892;2022-07-23T10:19:46;97929.19;;;21.57;70.13
73085;BME280;61266;49.460;10.892;2022-07-23T10:22:19;97914.28;;;21.18;75.50
73085;BME280;61266;49.460;10.892;2022-07-23T10:24:55;97912.09;;;21.92;66.97
73085;BME280;61266;49.460;10.892;2022-07-23T10:27:47;97929.94;;;22.35;69.60
73085;BME280;61266;49.460;10.892;2022-07-23T10:30:20;97949.91;;;22.30;69.50
73085;BME280;61266;49.460;10.892;2022-07-23T10:33:02;97953.47;;;22.31;64.33
73085;BME280;61266;49.460;10.892;2022-07-23T10:35:43;97957.56;;;22.28;68.79
73085;BME280;61266;49.460;10.892;2022-07-23T10:38:19;97951.81;;;22.30;67.55
73085;BME280;61266;49.460;10.892;2022-07-23T10:40:55;97953.75;;;22.55;61.98
73085;BME280;61266;49.460;10.892;2022-07-23T10:43:25;97942.81;;;22.70;61.73
73085;BME280;61266;49.460;10.892;2022-07-23T10:45:54;97948.88;;;22.72;62.29
73085;BME280;61266;49.460;10.892;2022-07-23T10:48:24;97949.41;;;22.69;62.65
73085;BME280;61266;49.460;10.892;2022-07-23T10:51:08;97948.28;;;22.65;61.28
73085;BME280;61266;49.460;10.892;2022-07-23T10:53:56;97948.31;;;22.75;61.91
73085;BME280;61266;49.460;10.892;2022-07-23T10:56:50;97952.38;;;22.42;66.09
73085;BME280;61266;49.460;10.892;2022-07-23T10:59:20;97941.44;;;22.47;64.75
73085;BME280;61266;49.460;10.892;2022-07-23T11:01:48;97952.09;;;22.43;66.33
73085;BME280;61266;49.460;10.892;2022-07-23T11:04:17;97952.94;;;22.69;67.95
73085;BME280;61266;49.460;10.892;2022-07-23T11:07:07;97958.72;;;22.73;63.42
73085;BME280;61266;49.460;10.892;2022-07-23T11:09:54;97958.16;;;22.71;65.21
73085;BME280;61266;49.460;10.892;2022-07-23T11:12:35;97963.59;;;22.45;69.33
73085;BME280;61266;49.460;10.892;2022-07-23T11:15:07;97954.28;;;22.41;67.51
73085;BME280;61266;49.460;10.892;2022-07-23T11:17:37;97951.28;;;22.63;67.64
73085;BME280;61266;49.460;10.892;2022-07-23T11:20:14;97946.13;;;22.77;65.06
73085;BME280;61266;49.460;10.892;2022-07-23T11:22:49;97950.44;;;22.37;70.72
73085;BME280;61266;49.460;10.892;2022-07-23T11:25:35;97937.59;;;22.28;73.65
73085;BME280;61266;49.460;10.892;2022-07-23T11:28:13;97932.97;;;22.84;65.15
73085;BME280;61266;49.460;10.892;2022-07-23T11:30:45;97945.56;;;22.44;70.17
73085;BME280;61266;49.460;10.892;2022-07-23T11:33:18;97933.22;;;22.52;69.42
73085;BME280;61266;49.460;10.892;2022-07-23T11:35:49;97925.84;;;22.53;67.08
73085;BME280;61266;49.460;10.892;2022-07-23T11:38:19;97926.38;;;22.49;71.27
73085;BME280;61266;49.460;10.892;2022-07-23T11:40:49;97929.38;;;22.28;73.66
73085;BME280;61266;49.460;10.892;2022-07-23T11:43:17;97932.66;;;22.30;72.54
73085;BME280;61266;49.460;10.892;2022-07-23T11:45:49;97928.84;;;22.61;71.96
73085;BME280;61266;49.460;10.892;2022-07-23T11:48:19;97917.91;;;22.76;71.42
73085;BME280;61266;49.460;10.892;2022-07-23T11:50:47;97925.00;;;22.87;72.95
73085;BME280;61266;49.460;10.892;2022-07-23T11:53:21;97917.31;;;23.00;71.34
73085;BME280;61266;49.460;10.892;2022-07-23T11:55:49;97918.97;;;22.90;71.75
73085;BME280;61266;49.460;10.892;2022-07-23T11:58:17;97906.38;;;22.94;72.67
73085;BME280;61266;49.460;10.892;2022-07-23T12:00:47;97918.41;;;23.09;70.42
73085;BME280;61266;49.460;10.892;2022-07-23T12:03:14;97906.31;;;23.20;70.12
73085;BME280;61266;49.460;10.892;2022-07-23T12:05:42;97905.84;;;23.72;68.24
73085;BME280;61266;49.460;10.892;2022-07-23T12:08:19;97902.47;;;23.85;69.71
73085;BME280;61266;49.460;10.892;2022-07-23T12:10:51;97900.88;;;23.79;69.03
73085;BME280;61266;49.460;10.892;2022-07-23T12:13:20;97894.97;;;24.01;68.19
73085;BME280;61266;49.460;10.892;2022-07-23T12:15:51;97891.38;;;24.05;68.80
73085;BME280;61266;49.460;10.892;2022-07-23T12:18:21;97891.59;;;24.09;68.39
73085;BME280;61266;49.460;10.892;2022-07-23T12:20:52;97884.41;;;24.23;69.49
73085;BME280;61266;49.460;10.892;2022-07-23T12:23:27;97879.91;;;24.37;65.46
73085;BME280;61266;49.460;10.892;2022-07-23T12:26:01;97881.81;;;24.37;65.22
73085;BME280;61266;49.460;10.892;2022-07-23T12:28:32;97883.13;;;24.05;63.47
73085;BME280;61266;49.460;10.892;2022-07-23T12:31:07;97879.25;;;24.16;64.22
73085;BME280;61266;49.460;10.892;2022-07-23T12:33:42;97871.28;;;24.49;62.80
73085;BME280;61266;49.460;10.892;2022-07-23T12:36:17;97867.44;;;24.50;62.85
73085;BME280;61266;49.460;10.892;2022-07-23T12:38:48;97867.00;;;24.66;62.65
73085;BME280;61266;49.460;10.892;2022-07-23T12:41:22;97867.78;;;25.01;61.79
73085;BME280;61266;49.460;10.892;2022-07-23T12:43:53;97868.72;;;25.15;62.43
73085;BME280;61266;49.460;10.892;2022-07-23T12:46:22;97867.72;;;25.06;60.86
73085;BME280;61266;49.460;10.892;2022-07-23T12:48:51;97862.00;;;25.26;60.42
73085;BME280;61266;49.460;10.892;2022-07-23T12:51:21;97859.19;;;25.31;60.22
73085;BME280;61266;49.460;10.892;2022-07-23T12:53:53;97863.56;;;25.32;58.67
73085;BME280;61266;49.460;10.892;2022-07-23T12:56:27;97859.63;;;25.81;59.32
73085;BME280;61266;49.460;10.892;2022-07-23T12:58:56;97860.69;;;25.42;60.07
73085;BME280;61266;49.460;10.892;2022-07-23T13:01:27;97857.28;;;25.50;58.53
73085;BME280;61266;49.460;10.892;2022-07-23T13:04:03;97852.13;;;25.67;57.11
73085;BME280;61266;49.460;10.892;2022-07-23T13:06:40;97859.63;;;25.81;59.16
73085;BME280;61266;49.460;10.892;2022-07-23T13:09:12;97860.56;;;25.52;58.10
73085;BME280;61266;49.460;10.892;2022-07-23T13:11:42;97853.09;;;25.58;54.93
73085;BME280;61266;49.460;10.892;2022-07-23T13:14:13;97854.94;;;25.62;57.56
73085;BME280;61266;49.460;10.892;2022-07-23T13:16:43;97853.03;;;25.82;57.44
73085;BME280;61266;49.460;10.892;2022-07-23T13:19:12;97859.41;;;25.77;58.26
73085;BME280;61266;49.460;10.892;2022-07-23T13:21:40;97856.75;;;25.91;57.51